createdAt,value
2018-09-27T00:00:17.934Z,8.69
2018-09-27T00:02:47.122Z,8.74
2018-09-27T00:05:17.585Z,8.67
2018-09-27T00:07:46.828Z,8.61
2018-09-27T00:10:18.167Z,8.61
2018-09-27T00:12:47.369Z,8.64
2018-09-27T00:15:18.677Z,8.56
2018-09-27T00:17:47.880Z,8.52
2018-09-27T00:20:18.374Z,8.60
2018-09-27T00:22:47.554Z,8.54
2018-09-27T00:25:18.916Z,8.51
2018-09-27T00:42:51.984Z,8.41
2018-09-27T00:45:21.197Z,8.46
2018-09-27T00:47:50.448Z,8.30
2018-09-27T00:50:19.671Z,8.29
2018-09-27T00:52:48.864Z,8.22
2018-09-27T00:55:19.571Z,8.22
2018-09-27T00:57:48.808Z,8.14
2018-09-27T01:00:18.488Z,8.15
2018-09-27T01:02:47.679Z,8.21
2018-09-27T01:05:18.691Z,8.17
2018-09-27T01:07:47.886Z,8.16
2018-09-27T01:10:19.081Z,8.20
2018-09-27T01:12:48.325Z,8.07
2018-09-27T01:15:17.648Z,7.95
2018-09-27T01:17:46.811Z,8.02
2018-09-27T01:20:16.996Z,7.93
2018-09-27T01:22:46.162Z,7.92
2018-09-27T01:25:16.284Z,8.03
2018-09-27T01:27:45.476Z,8.07
2018-09-27T01:30:15.964Z,8.15
2018-09-27T01:32:45.205Z,8.09
2018-09-27T01:35:15.554Z,7.95
2018-09-27T01:37:44.726Z,7.86
2018-09-27T01:40:14.173Z,7.89
2018-09-27T01:42:43.351Z,7.83
2018-09-27T01:45:12.821Z,7.87
2018-09-27T01:47:41.993Z,7.96
2018-09-27T01:50:11.279Z,7.80
2018-09-27T01:52:40.475Z,7.78
2018-09-27T01:55:09.748Z,7.66
2018-09-27T01:57:39.003Z,7.77
2018-09-27T02:00:08.328Z,7.76
2018-09-27T02:02:37.542Z,7.79
2018-09-27T02:05:06.800Z,7.84
2018-09-27T02:07:35.964Z,7.82
2018-09-27T02:10:05.318Z,7.81
2018-09-27T02:12:34.527Z,7.87
2018-09-27T02:15:03.816Z,7.82
2018-09-27T02:17:32.980Z,7.70
2018-09-27T02:20:02.148Z,7.63
2018-09-27T02:22:31.341Z,7.65
2018-09-27T02:25:00.553Z,7.69
2018-09-27T02:27:29.807Z,7.72
2018-09-27T02:29:59.040Z,7.82
2018-09-27T02:32:28.253Z,7.80
2018-09-27T02:34:57.468Z,7.68
2018-09-27T02:37:26.720Z,7.63
2018-09-27T02:39:55.928Z,7.63
2018-09-27T02:42:25.120Z,7.62
2018-09-27T02:44:54.324Z,7.66
2018-09-27T02:47:23.511Z,7.57
2018-09-27T02:49:52.655Z,7.48
2018-09-27T02:52:21.865Z,7.45
2018-09-27T02:54:51.024Z,7.39
2018-09-27T02:57:20.215Z,7.39
2018-09-27T02:59:49.368Z,7.38
2018-09-27T03:02:18.576Z,7.31
2018-09-27T03:04:47.754Z,7.31
2018-09-27T03:07:17.025Z,7.26
2018-09-27T03:09:46.222Z,7.30
2018-09-27T03:12:15.883Z,7.19
2018-09-27T03:14:45.076Z,7.16
2018-09-27T03:17:14.822Z,7.24
2018-09-27T03:19:43.964Z,7.15
2018-09-27T03:22:13.747Z,7.18
2018-09-27T03:24:43.003Z,7.16
2018-09-27T03:27:12.184Z,7.14
2018-09-27T03:29:41.372Z,7.11
2018-09-27T03:32:10.593Z,7.06
2018-09-27T03:34:39.764Z,7.15
2018-09-27T03:37:08.979Z,7.15
2018-09-27T03:39:38.211Z,7.16
2018-09-27T03:42:08.069Z,7.08
2018-09-27T03:44:37.312Z,7.08
2018-09-27T03:47:06.567Z,7.11
2018-09-27T03:49:35.745Z,7.27
2018-09-27T03:52:04.963Z,7.22
2018-09-27T03:54:34.132Z,7.18
2018-09-27T03:57:03.355Z,7.06
2018-09-27T03:59:32.535Z,7.00
2018-09-27T04:02:01.795Z,6.95
2018-09-27T04:04:31.199Z,6.96
2018-09-27T04:07:00.422Z,7.09
2018-09-27T04:09:29.649Z,7.06
2018-09-27T04:11:58.906Z,7.17
2018-09-27T04:14:28.136Z,7.06
2018-09-27T04:16:57.360Z,6.95
2018-09-27T04:19:26.663Z,6.90
2018-09-27T04:21:55.940Z,6.87
2018-09-27T04:24:25.074Z,7.00
2018-09-27T04:26:54.331Z,7.05
2018-09-27T04:29:23.511Z,7.02
2018-09-27T04:31:52.751Z,7.09
2018-09-27T04:34:22.038Z,7.03
2018-09-27T04:36:51.268Z,7.07
2018-09-27T04:39:20.478Z,7.11
2018-09-27T04:41:49.708Z,7.06
2018-09-27T04:44:19.134Z,7.07
2018-09-27T04:46:48.353Z,7.06
2018-09-27T04:49:18.350Z,7.06
2018-09-27T04:51:47.570Z,7.03
2018-09-27T04:54:16.778Z,6.95
2018-09-27T04:56:46.017Z,6.90
2018-09-27T04:59:15.343Z,6.90
2018-09-27T05:01:44.683Z,6.98
2018-09-27T05:04:13.942Z,6.98
2018-09-27T05:06:43.217Z,6.92
2018-09-27T05:09:12.470Z,6.88
2018-09-27T05:11:41.702Z,6.92
2018-09-27T05:14:10.897Z,6.90
2018-09-27T05:16:40.075Z,6.82
2018-09-27T05:19:09.479Z,6.81
2018-09-27T05:21:38.720Z,6.80
2018-09-27T05:24:08.239Z,6.87
2018-09-27T05:26:37.427Z,6.90
2018-09-27T05:29:06.768Z,6.90
2018-09-27T05:31:35.919Z,6.92
2018-09-27T05:34:05.190Z,6.93
2018-09-27T05:36:34.411Z,6.97
2018-09-27T05:39:04.860Z,7.05
2018-09-27T05:41:34.053Z,7.06
2018-09-27T05:44:03.275Z,7.13
2018-09-27T05:46:32.516Z,7.25
2018-09-27T05:49:01.788Z,7.19
2018-09-27T05:51:30.992Z,7.27
2018-09-27T05:54:00.250Z,7.38
2018-09-27T05:56:29.499Z,7.54
2018-09-27T05:58:58.709Z,7.74
2018-09-27T06:01:27.914Z,8.49
2018-09-27T06:03:57.092Z,9.75
2018-09-27T06:06:26.295Z,11.23
2018-09-27T06:08:55.551Z,11.95
2018-09-27T06:11:24.874Z,13.07
2018-09-27T06:13:54.091Z,13.15
2018-09-27T06:16:23.288Z,14.58
2018-09-27T06:18:52.496Z,14.57
2018-09-27T06:21:21.736Z,14.38
2018-09-27T06:23:50.941Z,14.73
2018-09-27T06:26:20.187Z,15.47
2018-09-27T06:28:52.439Z,15.86
2018-09-27T06:31:21.624Z,16.81
2018-09-27T06:33:50.908Z,16.88
2018-09-27T06:36:20.084Z,15.01
2018-09-27T06:38:49.303Z,16.47
2018-09-27T06:41:18.565Z,15.32
2018-09-27T06:43:47.793Z,16.88
2018-09-27T06:46:16.960Z,17.53
2018-09-27T06:48:46.252Z,18.05
2018-09-27T06:51:15.392Z,18.14
2018-09-27T06:53:44.612Z,17.73
2018-09-27T06:56:13.885Z,18.16
2018-09-27T06:58:43.095Z,16.77
2018-09-27T07:01:12.272Z,17.38
2018-09-27T07:03:41.527Z,18.45
2018-09-27T07:06:11.059Z,18.44
2018-09-27T07:08:40.348Z,18.20
2018-09-27T07:11:09.635Z,18.36
2018-09-27T07:13:38.853Z,18.65
2018-09-27T07:16:08.655Z,18.95
2018-09-27T07:18:37.878Z,19.10
2018-09-27T07:21:07.494Z,19.56
2018-09-27T07:23:36.786Z,19.53
2018-09-27T07:26:06.305Z,19.02
2018-09-27T07:28:35.468Z,19.26
2018-09-27T07:31:04.664Z,19.45
2018-09-27T07:33:33.873Z,19.53
2018-09-27T07:36:03.204Z,19.55
2018-09-27T07:38:32.442Z,19.44
2018-09-27T07:41:01.647Z,19.41
2018-09-27T07:43:30.846Z,19.54
2018-09-27T07:46:00.135Z,19.75
2018-09-27T07:48:29.352Z,19.52
2018-09-27T07:50:58.769Z,16.87
2018-09-27T07:53:28.044Z,17.47
2018-09-27T07:55:57.316Z,19.53
2018-09-27T07:58:26.483Z,18.84
2018-09-27T08:00:55.804Z,19.91
2018-09-27T08:03:24.975Z,20.15
2018-09-27T08:05:54.179Z,19.65
2018-09-27T08:08:23.420Z,20.09
2018-09-27T08:10:52.602Z,19.92
2018-09-27T08:13:21.787Z,19.73
2018-09-27T08:15:51.026Z,19.51
2018-09-27T08:18:20.283Z,19.70
2018-09-27T08:20:49.605Z,19.42
2018-09-27T08:23:18.821Z,18.94
2018-09-27T08:25:48.020Z,20.14
2018-09-27T08:28:17.222Z,19.74
2018-09-27T08:30:46.459Z,19.37
2018-09-27T08:33:15.612Z,18.77
2018-09-27T08:35:44.845Z,17.59
2018-09-27T08:38:14.046Z,17.97
2018-09-27T08:40:43.239Z,18.02
2018-09-27T08:43:12.413Z,18.15
2018-09-27T08:45:41.745Z,18.27
2018-09-27T08:48:11.059Z,18.36
2018-09-27T08:50:40.276Z,18.97
2018-09-27T08:53:09.681Z,18.10
2018-09-27T08:55:38.988Z,17.60
2018-09-27T08:58:08.507Z,16.60
2018-09-27T09:00:37.719Z,16.34
2018-09-27T09:03:06.935Z,16.17
2018-09-27T09:05:36.256Z,16.26
2018-09-27T09:08:05.481Z,16.33
2018-09-27T09:10:34.743Z,16.24
2018-09-27T09:13:04.055Z,15.08
2018-09-27T09:15:33.336Z,15.61
2018-09-27T09:18:02.453Z,15.21
2018-09-27T09:20:31.640Z,15.32
2018-09-27T09:23:00.826Z,15.41
2018-09-27T09:25:30.105Z,14.68
2018-09-27T09:27:59.334Z,15.05
2018-09-27T09:30:28.541Z,15.52
2018-09-27T09:32:57.725Z,15.53
2018-09-27T09:35:26.912Z,15.25
2018-09-27T09:37:56.079Z,15.80
2018-09-27T09:40:25.322Z,16.10
2018-09-27T09:42:54.513Z,16.11
2018-09-27T09:45:23.747Z,16.20
2018-09-27T09:47:52.942Z,16.58
2018-09-27T09:50:22.232Z,16.88
2018-09-27T09:52:51.449Z,17.07
2018-09-27T09:55:20.706Z,17.16
2018-09-27T09:57:49.934Z,16.84
2018-09-27T10:00:20.588Z,16.75
2018-09-27T10:02:50.909Z,17.12
2018-09-27T10:05:21.456Z,17.10
2018-09-27T10:07:51.696Z,17.38
2018-09-27T10:10:22.335Z,16.88
2018-09-27T10:12:51.542Z,16.42
2018-09-27T10:15:20.899Z,16.37
2018-09-27T10:17:50.097Z,16.60
2018-09-27T10:20:19.375Z,16.48
2018-09-27T10:22:48.594Z,16.60
2018-09-27T10:25:17.873Z,17.08
2018-09-27T10:27:47.104Z,17.41
2018-09-27T10:30:16.403Z,17.44
2018-09-27T10:32:45.632Z,17.49
2018-09-27T10:35:14.952Z,17.63
2018-09-27T10:37:44.227Z,17.69
2018-09-27T10:40:13.557Z,17.48
2018-09-27T10:42:42.841Z,17.84
2018-09-27T10:45:12.343Z,18.01
2018-09-27T10:47:41.603Z,18.20
2018-09-27T10:50:11.490Z,18.36
2018-09-27T10:52:40.705Z,18.15
2018-09-27T10:55:11.690Z,18.23
2018-09-27T10:57:40.907Z,18.51
2018-09-27T11:00:15.854Z,18.70
2018-09-27T11:02:45.105Z,18.82
2018-09-27T11:05:15.304Z,18.83
2018-09-27T11:07:44.538Z,18.94
2018-09-27T11:10:14.049Z,19.03
2018-09-27T11:12:43.394Z,18.80
2018-09-27T11:15:13.580Z,18.84
2018-09-27T11:17:42.851Z,18.89
2018-09-27T11:20:12.140Z,18.94
2018-09-27T11:22:41.367Z,18.94
2018-09-27T11:25:12.255Z,18.55
2018-09-27T11:27:41.466Z,18.74
2018-09-27T11:30:17.375Z,19.01
2018-09-27T11:32:46.763Z,18.83
2018-09-27T11:35:16.085Z,19.14
2018-09-27T11:37:45.380Z,19.29
2018-09-27T11:40:14.615Z,19.31
2018-09-27T11:42:43.840Z,19.46
2018-09-27T11:45:13.891Z,19.52
2018-09-27T11:47:43.090Z,19.71
2018-09-27T11:50:13.485Z,19.87
2018-09-27T11:52:42.672Z,19.84
2018-09-27T11:55:12.897Z,19.87
2018-09-27T11:57:42.135Z,19.75
2018-09-27T12:00:12.872Z,19.36
2018-09-27T12:02:42.105Z,19.10
2018-09-27T12:05:11.825Z,18.96
2018-09-27T12:07:41.135Z,19.00
2018-09-27T12:10:11.943Z,19.11
2018-09-27T12:12:41.180Z,19.53
2018-09-27T12:15:12.260Z,19.62
2018-09-27T12:17:41.489Z,19.88
2018-09-27T12:20:11.303Z,20.04
2018-09-27T12:22:40.468Z,20.10
2018-09-27T12:25:11.265Z,20.11
2018-09-27T12:27:40.467Z,20.17
2018-09-27T12:30:10.969Z,20.09
2018-09-27T12:32:40.215Z,19.97
2018-09-27T12:35:10.839Z,20.07
2018-09-27T12:37:40.197Z,20.35
2018-09-27T12:40:10.559Z,20.35
2018-09-27T12:42:39.884Z,20.37
2018-09-27T12:45:10.742Z,20.31
2018-09-27T12:47:39.924Z,20.49
2018-09-27T12:50:10.850Z,20.61
2018-09-27T12:52:40.147Z,20.61
2018-09-27T12:55:10.880Z,20.62
2018-09-27T12:57:40.115Z,20.80
2018-09-27T13:00:10.681Z,20.74
2018-09-27T13:02:39.926Z,20.77
2018-09-27T13:05:10.247Z,20.72
2018-09-27T13:07:39.468Z,20.86
2018-09-27T13:10:09.515Z,20.87
2018-09-27T13:12:38.953Z,20.89
2018-09-27T13:15:08.554Z,20.97
2018-09-27T13:17:37.901Z,21.02
2018-09-27T13:20:07.138Z,21.06
2018-09-27T13:22:36.352Z,21.12
2018-09-27T13:25:05.887Z,21.18
2018-09-27T13:27:35.027Z,21.25
2018-09-27T13:30:04.337Z,21.22
2018-09-27T13:32:33.570Z,21.26
2018-09-27T13:35:02.751Z,21.25
2018-09-27T13:37:31.943Z,21.21
2018-09-27T13:40:01.206Z,21.23
2018-09-27T13:42:30.416Z,21.11
2018-09-27T13:44:59.614Z,21.22
2018-09-27T13:47:28.871Z,21.07
2018-09-27T13:49:58.211Z,21.17
2018-09-27T13:52:27.429Z,21.29
2018-09-27T13:54:56.719Z,21.32
2018-09-27T13:57:26.192Z,21.36
2018-09-27T13:59:55.375Z,21.20
2018-09-27T14:02:24.577Z,21.31
2018-09-27T14:04:53.777Z,21.31
2018-09-27T14:07:23.015Z,21.35
2018-09-27T14:09:52.228Z,21.32
2018-09-27T14:12:21.522Z,21.30
2018-09-27T14:14:50.731Z,21.40
2018-09-27T14:17:19.928Z,21.36
2018-09-27T14:19:49.115Z,21.35
2018-09-27T14:22:18.372Z,21.25
2018-09-27T14:24:47.634Z,21.28
2018-09-27T14:27:16.787Z,21.28
2018-09-27T14:29:46.120Z,21.22
2018-09-27T14:32:15.407Z,21.27
2018-09-27T14:34:44.563Z,21.18
2018-09-27T14:37:13.797Z,21.24
2018-09-27T14:39:43.092Z,21.20
2018-09-27T14:42:12.276Z,21.22
2018-09-27T14:44:41.473Z,21.25
2018-09-27T14:47:10.977Z,21.21
2018-09-27T14:49:40.217Z,21.20
2018-09-27T14:52:09.769Z,21.20
2018-09-27T14:54:38.957Z,21.18
2018-09-27T14:57:08.759Z,21.15
2018-09-27T14:59:38.053Z,21.09
2018-09-27T15:02:07.738Z,21.02
2018-09-27T15:04:36.896Z,21.00
2018-09-27T15:07:06.275Z,20.98
2018-09-27T15:09:35.647Z,20.95
2018-09-27T15:12:04.712Z,20.96
2018-09-27T15:14:33.939Z,20.90
2018-09-27T15:17:03.053Z,20.85
2018-09-27T15:19:32.288Z,20.72
2018-09-27T15:22:01.480Z,20.68
2018-09-27T15:24:30.651Z,20.61
2018-09-27T15:26:59.901Z,20.54
2018-09-27T15:29:29.091Z,20.47
2018-09-27T15:31:59.321Z,20.43
2018-09-27T15:34:28.549Z,20.34
2018-09-27T15:36:57.764Z,20.41
2018-09-27T15:39:27.257Z,20.36
2018-09-27T15:41:56.490Z,20.31
2018-09-27T15:44:25.721Z,20.18
2018-09-27T15:46:54.883Z,20.03
2018-09-27T15:49:24.112Z,19.92
2018-09-27T15:51:53.305Z,19.83
2018-09-27T15:54:22.556Z,19.79
2018-09-27T15:56:51.764Z,19.71
2018-09-27T15:59:21.918Z,19.74
2018-09-27T16:01:51.175Z,19.72
2018-09-27T16:04:20.407Z,19.78
2018-09-27T16:06:49.611Z,19.63
2018-09-27T16:09:18.755Z,19.54
2018-09-27T16:11:47.996Z,19.50
2018-09-27T16:14:17.170Z,19.42
2018-09-27T16:16:46.427Z,19.29
2018-09-27T16:19:15.687Z,19.25
2018-09-27T16:21:44.896Z,19.14
2018-09-27T16:24:14.103Z,19.11
2018-09-27T16:26:43.334Z,19.05
2018-09-27T16:29:12.583Z,18.89
2018-09-27T16:31:41.825Z,18.77
2018-09-27T16:34:11.420Z,18.66
2018-09-27T16:36:40.641Z,18.53
2018-09-27T16:39:10.679Z,18.46
2018-09-27T16:41:40.261Z,18.37
2018-09-27T16:44:09.505Z,18.27
2018-09-27T16:46:38.741Z,18.17
2018-09-27T16:49:08.880Z,18.08
2018-09-27T16:51:38.053Z,17.98
2018-09-27T16:54:07.481Z,17.89
2018-09-27T16:56:36.751Z,17.80
2018-09-27T16:59:06.075Z,17.73
2018-09-27T17:01:35.263Z,17.57
2018-09-27T17:04:04.450Z,17.49
2018-09-27T17:06:33.654Z,17.39
2018-09-27T17:09:03.103Z,17.30
2018-09-27T17:11:32.340Z,17.20
2018-09-27T17:14:01.515Z,17.15
2018-09-27T17:16:30.801Z,17.10
2018-09-27T17:18:59.974Z,17.06
2018-09-27T17:21:29.284Z,17.00
2018-09-27T17:23:58.517Z,16.97
2018-09-27T17:26:27.736Z,16.88
2018-09-27T17:28:56.909Z,16.84
2018-09-27T17:31:26.202Z,16.77
2018-09-27T17:33:55.384Z,16.73
2018-09-27T17:36:24.620Z,16.76
2018-09-27T17:38:53.822Z,16.73
2018-09-27T17:41:23.060Z,16.64
2018-09-27T17:43:52.256Z,16.56
2018-09-27T17:46:21.511Z,16.46
2018-09-27T17:48:50.701Z,16.43
2018-09-27T17:51:19.912Z,16.35
2018-09-27T17:53:49.088Z,16.31
2018-09-27T17:56:18.354Z,16.24
2018-09-27T17:58:47.533Z,16.17
2018-09-27T18:01:16.856Z,16.17
2018-09-27T18:03:46.059Z,16.11
2018-09-27T18:06:15.394Z,16.10
2018-09-27T18:08:44.644Z,16.10
2018-09-27T18:11:14.493Z,16.09
2018-09-27T18:13:43.718Z,16.16
2018-09-27T18:16:13.015Z,16.25
2018-09-27T18:18:42.208Z,16.28
2018-09-27T18:21:11.802Z,16.24
2018-09-27T18:23:40.955Z,16.19
2018-09-27T18:26:10.183Z,16.17
2018-09-27T18:28:39.550Z,16.14
2018-09-27T18:31:08.792Z,16.10
2018-09-27T18:33:37.918Z,16.02
2018-09-27T18:36:07.393Z,15.95
2018-09-27T18:38:36.902Z,15.93
2018-09-27T18:41:06.279Z,15.88
2018-09-27T18:43:35.596Z,15.83
2018-09-27T18:46:04.878Z,15.76
2018-09-27T18:48:34.141Z,15.67
2018-09-27T18:51:03.658Z,15.59
2018-09-27T18:53:33.539Z,15.48
2018-09-27T18:56:02.826Z,15.37
2018-09-27T18:58:32.211Z,15.28
2018-09-27T19:01:01.491Z,15.20
2018-09-27T19:03:30.929Z,15.18
2018-09-27T19:06:00.291Z,15.13
2018-09-27T19:08:30.072Z,15.07
2018-09-27T19:10:59.996Z,15.03
2018-09-27T19:13:29.188Z,15.03
2018-09-27T19:15:58.570Z,15.03
2018-09-27T19:18:27.791Z,14.97
2018-09-27T19:20:57.090Z,14.94
2018-09-27T19:23:26.389Z,14.96
2018-09-27T19:25:55.677Z,14.88
2018-09-27T19:28:24.877Z,14.80
2018-09-27T19:30:54.216Z,14.79
2018-09-27T19:33:23.451Z,14.77
2018-09-27T19:35:52.760Z,14.80
2018-09-27T19:38:22.020Z,14.86
2018-09-27T19:40:51.250Z,14.80
2018-09-27T19:43:20.436Z,14.68
2018-09-27T19:45:49.709Z,14.57
2018-09-27T19:48:18.910Z,14.48
2018-09-27T19:50:48.184Z,14.38
2018-09-27T19:53:17.666Z,14.33
2018-09-27T19:55:46.972Z,14.23
2018-09-27T19:58:16.568Z,14.17
2018-09-27T20:00:45.749Z,14.11
2018-09-27T20:03:15.335Z,14.10
2018-09-27T20:05:44.582Z,14.05
2018-09-27T20:08:14.184Z,13.99
2018-09-27T20:10:43.385Z,13.96
2018-09-27T20:13:13.137Z,13.89
2018-09-27T20:15:42.435Z,13.84
2018-09-27T20:18:11.827Z,13.80
2018-09-27T20:20:41.096Z,13.79
2018-09-27T20:23:10.416Z,13.75
2018-09-27T20:25:39.581Z,13.71
2018-09-27T20:28:09.295Z,13.70
2018-09-27T20:30:38.628Z,13.69
2018-09-27T20:33:07.973Z,13.67
2018-09-27T20:35:37.316Z,13.62
2018-09-27T20:38:06.719Z,13.60
2018-09-27T20:40:36.249Z,13.64
2018-09-27T20:43:05.559Z,13.61
2018-09-27T20:45:34.837Z,13.56
2018-09-27T20:48:04.105Z,13.48
2018-09-27T20:50:33.578Z,13.47
2018-09-27T20:53:03.040Z,13.46
2018-09-27T20:55:32.257Z,13.39
2018-09-27T20:58:01.506Z,13.32
2018-09-27T21:00:30.730Z,13.23
2018-09-27T21:02:59.952Z,13.33
2018-09-27T21:05:29.189Z,13.38
2018-09-27T21:07:58.400Z,13.35
2018-09-27T21:10:27.643Z,13.38
2018-09-27T21:12:57.817Z,13.29
2018-09-27T21:15:27.046Z,13.18
2018-09-27T21:17:56.267Z,13.06
2018-09-27T21:20:25.596Z,13.01
2018-09-27T21:22:54.865Z,13.02
2018-09-27T21:25:24.057Z,12.98
2018-09-27T21:27:53.336Z,12.89
2018-09-27T21:30:22.608Z,12.84
2018-09-27T21:32:51.822Z,12.86
2018-09-27T21:35:21.058Z,12.81
2018-09-27T21:37:50.363Z,12.78
2018-09-27T21:40:19.926Z,12.73
2018-09-27T21:42:49.160Z,12.66
2018-09-27T21:45:18.467Z,12.66
2018-09-27T21:47:47.695Z,12.61
2018-09-27T21:50:17.472Z,12.55
2018-09-27T21:52:46.571Z,12.50
2018-09-27T21:55:17.183Z,12.49
2018-09-27T21:57:46.402Z,12.44
2018-09-27T22:00:17.094Z,12.63
2018-09-27T22:02:46.301Z,12.62
2018-09-27T22:05:17.398Z,12.47
2018-09-27T22:07:46.591Z,12.48
2018-09-27T22:10:17.199Z,12.38
2018-09-27T22:12:46.523Z,12.26
2018-09-27T22:15:16.783Z,12.27
2018-09-27T22:17:46.011Z,12.13
2018-09-27T22:20:17.167Z,12.11
2018-09-27T22:22:46.403Z,12.07
2018-09-27T22:25:16.789Z,12.05
2018-09-27T22:27:46.043Z,11.98
2018-09-27T22:30:16.935Z,12.01
2018-09-27T22:32:46.175Z,11.95
2018-09-27T22:35:16.171Z,11.92
2018-09-27T22:37:45.365Z,11.86
2018-09-27T22:40:15.835Z,11.79
2018-09-27T22:42:45.066Z,11.73
2018-09-27T22:45:15.416Z,11.73
2018-09-27T22:47:44.683Z,11.73
2018-09-27T22:50:15.667Z,11.81
2018-09-27T22:52:44.944Z,11.78
2018-09-27T22:55:15.225Z,11.73
2018-09-27T22:57:44.450Z,11.67
2018-09-27T23:00:14.283Z,11.68
2018-09-27T23:02:43.523Z,11.61
2018-09-27T23:05:12.996Z,11.54
2018-09-27T23:07:42.244Z,11.50
2018-09-27T23:10:11.473Z,11.46
2018-09-27T23:12:40.726Z,11.46
2018-09-27T23:15:09.960Z,11.42
2018-09-27T23:17:39.303Z,11.41
2018-09-27T23:20:09.566Z,11.47
2018-09-27T23:22:38.818Z,11.40
2018-09-27T23:25:08.218Z,11.30
2018-09-27T23:27:37.452Z,11.26
2018-09-27T23:30:06.788Z,11.23
2018-09-27T23:32:36.179Z,11.23
2018-09-27T23:35:05.764Z,11.16
2018-09-27T23:37:35.103Z,11.09
2018-09-27T23:40:04.368Z,11.06
2018-09-27T23:42:34.489Z,11.20
2018-09-27T23:45:03.784Z,11.05
2018-09-27T23:47:33.024Z,11.20
2018-09-27T23:50:02.241Z,11.18
2018-09-27T23:52:31.486Z,11.07
2018-09-27T23:55:00.638Z,11.00
2018-09-27T23:57:29.914Z,10.91
2018-09-27T23:59:59.142Z,10.87
